Time;durP1;ratioP1;P1;durP2;ratioP2;P2;SDS_P1;SDS_P2;PMS_P1;PMS_P2;Temp;Humidity;BMP_temperature;BMP_pressure;BME280_temperature;BME280_humidity;BME280_pressure;Samples;Min_cycle;Max_cycle;Signal;HPM_P1;HPM_P2
2021/04/06 00:02:38;;;;;;;6.53;2.30;;;;;;;0.44;73.92;100461.19;6210843;28;20237;-50
2021/04/06 00:06:03;;;;;;;8.47;2.90;;;;;;;0.52;73.50;100464.81;6224049;28;20248;-55
2021/04/06 00:09:25;;;;;;;7.70;2.77;;;;;;;0.43;73.86;100459.47;6220819;28;20284;-53
2021/04/06 00:12:50;;;;;;;6.00;2.53;;;;;;;0.26;74.72;100460.72;6208148;28;20240;-53
2021/04/06 00:16:11;;;;;;;4.90;1.70;;;;;;;0.15;74.45;100466.38;6206676;28;20233;-52
2021/04/06 00:19:34;;;;;;;7.53;2.23;;;;;;;0.44;74.17;100462.88;6214930;28;20304;-51
2021/04/06 00:22:58;;;;;;;6.43;2.60;;;;;;;0.60;73.82;100459.88;6216919;28;20434;-49
2021/04/06 00:26:18;;;;;;;2.20;1.97;;;;;;;0.47;73.61;100456.16;6218830;28;20322;-53
2021/04/06 00:29:41;;;;;;;9.33;4.43;;;;;;;0.64;72.93;100453.16;6213627;28;20244;-51
2021/04/06 00:33:06;;;;;;;4.00;2.00;;;;;;;0.73;71.79;100453.38;6219316;28;20232;-53
2021/04/06 00:36:27;;;;;;;9.27;2.43;;;;;;;0.74;72.39;100455.13;6220240;28;20324;-51
2021/04/06 00:39:58;;;;;;;5.47;2.20;;;;;;;0.42;72.87;100452.59;6223276;28;20240;-49
2021/04/06 00:43:19;;;;;;;3.80;1.90;;;;;;;0.72;72.47;100446.53;6210241;28;20323;-53
2021/04/06 00:46:44;;;;;;;5.50;1.90;;;;;;;0.54;72.64;100452.94;6211343;28;20232;-49
2021/04/06 00:50:08;;;;;;;6.13;2.53;;;;;;;0.92;71.49;100436.75;6220961;28;20598;-52
2021/04/06 00:53:48;;;;;;;8.80;2.10;;;;;;;0.62;72.86;100458.25;6206535;28;20244;-54
2021/04/06 00:57:13;;;;;;;4.67;2.37;;;;;;;0.50;72.99;100445.09;6211694;28;20225;-55
2021/04/06 01:00:35;;;;;;;5.47;2.20;;;;;;;0.49;73.21;100448.50;6201365;28;20505;-55
2021/04/06 01:03:57;;;;;;;4.10;1.70;;;;;;;0.32;73.84;100445.50;6218947;28;20606;-50
2021/04/06 01:07:17;;;;;;;6.30;2.23;;;;;;;0.67;72.72;100450.69;6210550;28;20229;-52
2021/04/06 01:10:39;;;;;;;6.80;1.87;;;;;;;0.32;74.17;100455.75;6216514;28;20240;-52
2021/04/06 01:14:01;;;;;;;5.23;1.73;;;;;;;0.51;73.25;100452.84;6211404;28;20237;-51
2021/04/06 01:17:23;;;;;;;3.47;1.50;;;;;;;0.24;74.03;100463.22;6213861;28;20263;-51
2021/04/06 01:20:43;;;;;;;3.93;1.50;;;;;;;0.45;73.74;100454.38;6216722;28;20224;-52
2021/04/06 01:24:08;;;;;;;2.83;1.47;;;;;;;0.55;73.10;100464.91;6208246;28;20491;-51
2021/04/06 01:27:28;;;;;;;4.60;2.10;;;;;;;0.50;73.83;100460.47;6215783;28;20237;-52
2021/04/06 01:30:51;;;;;;;3.03;2.27;;;;;;;0.31;74.58;100452.31;6212741;28;20253;-54
2021/04/06 01:34:12;;;;;;;3.93;1.77;;;;;;;0.33;74.82;100434.41;6211142;28;20237;-51
2021/04/06 01:37:33;;;;;;;3.83;1.63;;;;;;;0.19;75.66;100440.06;6214589;28;20256;-54
2021/04/06 01:40:57;;;;;;;2.37;1.33;;;;;;;0.10;75.83;100433.81;6215174;28;20253;-53
2021/04/06 01:44:18;;;;;;;4.27;2.00;;;;;;;0.37;74.82;100437.13;6211380;28;20509;-54
2021/04/06 01:47:39;;;;;;;2.77;1.90;;;;;;;0.39;74.75;100426.91;6219022;28;20236;-50
2021/04/06 01:51:00;;;;;;;3.47;1.63;;;;;;;0.35;74.41;100420.84;6215243;28;20579;-55
2021/04/06 01:54:21;;;;;;;2.57;1.97;;;;;;;0.28;74.98;100433.44;6219106;28;20237;-54
2021/04/06 01:57:46;;;;;;;4.27;2.00;;;;;;;0.57;73.75;100431.63;6205608;28;20229;-51
2021/04/06 02:01:16;;;;;;;6.40;2.30;;;;;;;0.78;73.09;100424.47;6212116;28;20229;-56
2021/04/06 02:04:39;;;;;;;3.87;2.17;;;;;;;0.72;73.71;100431.16;6209491;28;20498;-51
2021/04/06 02:08:08;;;;;;;2.87;1.50;;;;;;;0.38;74.83;100430.28;6213648;28;20260;-50
2021/04/06 02:11:31;;;;;;;2.00;1.70;;;;;;;0.40;75.24;100426.06;6233695;28;20240;-55
2021/04/06 02:14:57;;;;;;;3.60;1.70;;;;;;;0.55;74.56;100426.47;6217005;28;20677;-52
2021/04/06 02:18:20;;;;;;;13.77;2.70;;;;;;;0.86;73.14;100434.91;6210818;28;20252;-55
2021/04/06 02:21:48;;;;;;;2.23;1.57;;;;;;;0.40;75.03;100431.19;6229773;28;20233;-56
2021/04/06 02:25:17;;;;;;;4.57;1.60;;;;;;;0.61;74.61;100427.47;6210362;28;20224;-51
2021/04/06 02:28:37;;;;;;;3.30;2.20;;;;;;;0.73;73.79;100426.03;6216777;28;20236;-53
2021/04/06 02:31:59;;;;;;;2.07;1.73;;;;;;;0.63;74.49;100426.66;6214383;28;20233;-53
2021/04/06 02:35:19;;;;;;;5.33;1.90;;;;;;;0.67;74.59;100436.16;6221116;28;20275;-52
2021/04/06 02:38:41;;;;;;;4.83;2.50;;;;;;;0.53;75.45;100434.94;6214376;28;20319;-55
2021/04/06 02:42:17;;;;;;;3.70;2.20;;;;;;;1.16;73.17;100439.03;6215407;28;20244;-52
2021/04/06 02:45:38;;;;;;;5.87;2.27;;;;;;;0.75;74.43;100441.47;6211376;28;20230;-54
2021/04/06 02:49:00;;;;;;;4.67;2.60;;;;;;;0.94;73.82;100446.22;6227496;28;20229;-50
2021/04/06 02:52:21;;;;;;;5.90;2.70;;;;;;;1.17;74.03;100440.78;6212469;28;20743;-52
2021/04/06 02:55:42;;;;;;;6.77;2.03;;;;;;;1.54;72.46;100451.84;6219207;28;20262;-51
2021/04/06 02:59:12;;;;;;;3.67;2.40;;;;;;;1.29;74.32;100445.31;6219360;28;20233;-53
2021/04/06 03:02:38;;;;;;;7.77;2.80;;;;;;;1.21;75.48;100447.69;6219072;28;20613;-52
2021/04/06 03:06:05;;;;;;;4.03;3.07;;;;;;;1.50;74.62;100435.53;6216479;28;20243;-52
2021/04/06 03:09:26;;;;;;;3.30;2.40;;;;;;;1.66;74.64;100436.72;6221692;28;20225;-52
2021/04/06 03:12:48;;;;;;;10.43;5.53;;;;;;;1.81;74.48;100427.59;6216484;28;20253;-51
2021/04/06 03:16:11;;;;;;;4.80;2.47;;;;;;;1.56;75.00;100427.94;6212439;28;20250;-52
2021/04/06 03:19:32;;;;;;;6.17;3.10;;;;;;;1.77;74.01;100426.69;6224135;28;20222;-52
2021/04/06 03:22:54;;;;;;;8.10;3.23;;;;;;;1.73;73.74;100438.56;6215356;28;20241;-52
2021/04/06 03:26:15;;;;;;;3.37;2.73;;;;;;;1.74;74.04;100445.44;6217232;28;20236;-54
2021/04/06 03:29:36;;;;;;;9.43;3.23;;;;;;;1.18;77.26;100437.34;6212369;28;20803;-53
2021/04/06 03:32:56;;;;;;;5.23;4.63;;;;;;;1.15;77.92;100434.75;6212143;28;20615;-53
2021/04/06 03:36:21;;;;;;;8.60;5.47;;;;;;;1.26;78.23;100423.03;6207828;28;20233;-48
2021/04/06 03:39:43;;;;;;;6.77;5.07;;;;;;;1.17;77.73;100420.25;6211705;28;20551;-52
2021/04/06 03:43:12;;;;;;;7.67;4.60;;;;;;;1.12;77.63;100421.84;6228311;28;20240;-53
2021/04/06 03:46:33;;;;;;;6.57;5.47;;;;;;;0.93;78.37;100431.69;6222166;28;20229;-53
2021/04/06 03:49:54;;;;;;;11.97;5.93;;;;;;;1.00;77.62;100426.69;6223661;28;20224;-56
2021/04/06 03:53:15;;;;;;;7.40;5.20;;;;;;;0.89;78.51;100423.84;6202749;28;20233;-53
2021/04/06 03:56:36;;;;;;;9.47;5.57;;;;;;;1.32;76.55;100425.72;6215467;28;20315;-51
2021/04/06 03:59:56;;;;;;;10.30;4.57;;;;;;;1.14;76.27;100427.88;6213498;28;20224;-50
2021/04/06 04:03:17;;;;;;;7.70;4.00;;;;;;;1.08;76.63;100418.31;6220080;28;20268;-52
2021/04/06 04:06:37;;;;;;;8.23;4.87;;;;;;;1.19;76.26;100413.44;6222144;28;20631;-53
2021/04/06 04:09:58;;;;;;;12.23;5.50;;;;;;;1.43;75.35;100419.97;6209418;28;20236;-51
2021/04/06 04:13:19;;;;;;;7.67;5.13;;;;;;;1.17;76.75;100423.69;6235410;28;20579;-49
2021/04/06 04:16:40;;;;;;;11.43;5.83;;;;;;;1.12;76.39;100416.69;6233649;28;20596;-51
2021/04/06 04:20:06;;;;;;;12.47;4.87;;;;;;;1.31;75.84;100421.41;6215264;28;20232;-51
2021/04/06 04:23:26;;;;;;;7.67;4.97;;;;;;;1.20;76.23;100419.44;6227019;28;20224;-52
2021/04/06 04:26:46;;;;;;;7.63;4.87;;;;;;;1.37;75.86;100423.25;6228745;28;20677;-50
2021/04/06 04:30:09;;;;;;;10.43;5.47;;;;;;;1.79;74.26;100421.56;6232979;28;20323;-54
2021/04/06 04:33:30;;;;;;;7.63;4.70;;;;;;;2.06;73.48;100434.09;6217884;28;20296;-55
2021/04/06 04:36:50;;;;;;;8.60;5.80;;;;;;;2.11;72.96;100430.78;6215839;28;20239;-53
2021/04/06 04:40:12;;;;;;;11.07;4.97;;;;;;;1.76;74.51;100428.38;6237491;28;20216;-52
2021/04/06 04:43:32;;;;;;;9.40;4.70;;;;;;;1.81;73.82;100428.47;6238263;28;20244;-54
2021/04/06 04:46:53;;;;;;;14.07;7.83;;;;;;;1.87;73.83;100445.69;6207397;28;20237;-50
2021/04/06 04:50:14;;;;;;;8.27;4.50;;;;;;;1.93;74.28;100420.13;6221145;28;20236;-52
2021/04/06 04:53:35;;;;;;;6.47;4.03;;;;;;;1.85;74.20;100426.84;6215530;28;20233;-52
2021/04/06 04:56:55;;;;;;;13.40;4.50;;;;;;;1.80;74.03;100437.00;6225492;28;20237;-54
2021/04/06 05:00:17;;;;;;;13.30;3.73;;;;;;;2.05;73.85;100437.50;6221399;28;20229;-51
2021/04/06 05:03:39;;;;;;;12.53;3.90;;;;;;;1.98;73.55;100444.22;6230109;28;20228;-50
2021/04/06 05:07:00;;;;;;;12.50;4.67;;;;;;;2.24;72.51;100449.84;6212657;28;20256;-52
2021/04/06 05:10:21;;;;;;;12.87;6.33;;;;;;;2.09;72.72;100435.00;6211588;28;20220;-50
2021/04/06 05:13:41;;;;;;;13.97;5.20;;;;;;;2.16;72.66;100431.72;6232036;28;20228;-49
2021/04/06 05:17:02;;;;;;;11.17;3.97;;;;;;;1.95;72.77;100426.16;6203951;28;20573;-55
2021/04/06 05:20:23;;;;;;;10.37;4.00;;;;;;;2.26;71.53;100432.75;6226814;28;20231;-51
2021/04/06 05:23:43;;;;;;;15.87;4.73;;;;;;;2.47;69.94;100437.44;6231526;28;20236;-53
2021/04/06 05:27:04;;;;;;;11.90;3.80;;;;;;;2.42;70.38;100431.31;6217976;28;20339;-56
2021/04/06 05:30:26;;;;;;;6.90;3.93;;;;;;;2.15;71.51;100424.88;6225073;28;20244;-54
2021/04/06 05:33:46;;;;;;;9.37;3.10;;;;;;;2.37;71.03;100438.09;6223438;28;20228;-52
2021/04/06 05:37:08;;;;;;;17.73;4.23;;;;;;;2.31;70.77;100438.00;6220141;28;20504;-51
2021/04/06 05:40:28;;;;;;;8.43;3.73;;;;;;;2.43;70.88;100439.94;6214451;28;20236;-55
2021/04/06 05:43:55;;;;;;;15.03;5.93;;;;;;;2.22;71.63;100433.53;6208403;28;20229;-53
2021/04/06 05:47:21;;;;;;;42.73;7.60;;;;;;;2.52;70.32;100443.53;6208262;28;20241;-51
2021/04/06 05:50:46;;;;;;;9.43;4.00;;;;;;;2.42;70.61;100446.75;6210886;28;20225;-56
2021/04/06 05:54:10;;;;;;;10.97;4.33;;;;;;;2.91;68.81;100454.47;6205205;28;20241;-51
2021/04/06 05:57:31;;;;;;;10.93;4.20;;;;;;;2.82;68.84;100442.31;6210769;28;20228;-55
2021/04/06 06:00:52;;;;;;;18.90;5.00;;;;;;;3.04;66.93;100465.81;6210068;28;20220;-54
2021/04/06 06:04:14;;;;;;;9.37;4.30;;;;;;;3.27;64.41;100446.44;6206146;28;20894;-53
2021/04/06 06:07:35;;;;;;;11.23;2.83;;;;;;;3.27;64.86;100443.84;6210404;28;20244;-55
2021/04/06 06:11:03;;;;;;;14.07;4.17;;;;;;;3.06;66.96;100441.81;6204565;28;21530;-54
2021/04/06 06:14:30;;;;;;;5.60;3.10;;;;;;;3.49;64.98;100447.63;6205410;28;20237;-50
2021/04/06 06:18:04;;;;;;;11.23;3.30;;;;;;;2.70;68.29;100449.81;6221367;28;20236;-48
2021/04/06 06:21:39;;;;;;;11.80;3.57;;;;;;;2.34;69.59;100443.19;6212049;28;20685;-55
2021/04/06 06:25:04;;;;;;;18.00;6.37;;;;;;;2.66;68.87;100460.91;6207245;28;20232;-54
2021/04/06 06:28:25;;;;;;;11.63;3.63;;;;;;;3.10;66.67;100474.50;6212417;28;20228;-54
2021/04/06 06:31:48;;;;;;;11.23;5.13;;;;;;;2.79;69.27;100475.69;6212109;28;20240;-56
2021/04/06 06:35:09;;;;;;;12.47;4.77;;;;;;;3.10;68.01;100483.91;6207645;28;20296;-55
2021/04/06 06:38:33;;;;;;;8.47;3.30;;;;;;;2.72;69.81;100486.72;6202935;28;20233;-52
2021/04/06 06:41:58;;;;;;;8.50;3.87;;;;;;;2.65;70.56;100488.28;6203753;28;20237;-53
2021/04/06 06:45:25;;;;;;;11.80;2.93;;;;;;;2.98;69.63;100484.56;6197850;28;20233;-52
2021/04/06 06:48:53;;;;;;;6.93;3.40;;;;;;;2.99;69.72;100467.47;6196302;28;20229;-52
2021/04/06 06:52:30;;;;;;;10.87;4.20;;;;;;;2.73;70.56;100470.44;6217901;28;20737;-51
2021/04/06 06:55:52;;;;;;;16.87;4.60;;;;;;;3.20;69.71;100454.03;6187368;28;20237;-53
2021/04/06 06:59:13;;;;;;;8.03;3.87;;;;;;;2.24;72.30;100461.84;6204160;28;20241;-52
2021/04/06 07:02:35;;;;;;;10.67;3.33;;;;;;;2.47;72.96;100455.41;6195239;28;22186;-54
2021/04/06 07:05:56;;;;;;;9.87;4.13;;;;;;;2.07;71.38;100453.78;6209824;28;20367;-54
2021/04/06 07:09:23;;;;;;;14.50;4.43;;;;;;;2.52;70.34;100452.91;6208990;28;20241;-51
2021/04/06 07:12:45;;;;;;;18.13;4.70;;;;;;;2.25;69.50;100453.28;6206434;28;20502;-52
2021/04/06 07:16:11;;;;;;;17.50;5.40;;;;;;;2.75;67.84;100450.75;6214370;28;20248;-51
2021/04/06 07:19:36;;;;;;;8.97;3.73;;;;;;;2.50;66.95;100452.03;6208124;28;20245;-53
2021/04/06 07:23:00;;;;;;;12.37;5.70;;;;;;;2.66;67.21;100456.63;6216451;28;20900;-51
2021/04/06 07:26:21;;;;;;;13.83;4.57;;;;;;;2.08;70.12;100461.53;6222401;28;20232;-51
2021/04/06 07:29:43;;;;;;;16.63;3.80;;;;;;;1.62;74.33;100470.00;6210623;28;20264;-53
2021/04/06 07:33:05;;;;;;;13.77;3.67;;;;;;;1.57;75.38;100463.06;6219448;28;20241;-55
2021/04/06 07:36:27;;;;;;;8.80;3.40;;;;;;;1.65;75.42;100460.66;6211430;28;20221;-50
2021/04/06 07:39:49;;;;;;;9.77;3.40;;;;;;;1.69;74.87;100452.19;6205365;28;21189;-52
2021/04/06 07:43:10;;;;;;;8.73;3.97;;;;;;;1.96;73.57;100453.59;6214652;28;20320;-54
2021/04/06 07:46:41;;;;;;;7.70;4.10;;;;;;;2.55;71.33;100443.56;6210381;28;20321;-53
2021/04/06 07:50:01;;;;;;;15.20;4.73;;;;;;;2.09;72.79;100450.41;6227146;28;20236;-52
2021/04/06 07:53:26;;;;;;;13.10;4.77;;;;;;;2.48;71.43;100446.00;6210360;28;20331;-54
2021/04/06 07:56:57;;;;;;;13.50;3.63;;;;;;;2.66;70.70;100450.63;6203756;28;20241;-54
2021/04/06 08:00:49;;;;;;;11.77;3.83;;;;;;;3.57;67.21;100445.16;6209458;28;20233;-51
2021/04/06 08:04:10;;;;;;;7.43;3.80;;;;;;;3.90;66.67;100433.56;6199484;28;20252;-56
2021/04/06 08:07:33;;;;;;;8.00;3.43;;;;;;;3.97;66.12;100437.91;6229123;28;20232;-54
2021/04/06 08:10:56;;;;;;;11.50;2.87;;;;;;;4.20;65.02;100439.91;6213843;28;20426;-51
2021/04/06 08:14:17;;;;;;;5.70;2.47;;;;;;;4.02;63.75;100444.00;6232203;28;20447;-52
2021/04/06 08:17:50;;;;;;;10.10;3.80;;;;;;;4.11;63.81;100438.94;6218123;28;20540;-52
2021/04/06 08:21:11;;;;;;;6.43;2.27;;;;;;;4.09;63.29;100450.06;6206222;28;20586;-50
2021/04/06 08:24:32;;;;;;;7.70;2.53;;;;;;;4.92;61.71;100438.00;6207673;28;20237;-51
2021/04/06 08:27:55;;;;;;;6.03;2.93;;;;;;;5.01;60.45;100434.63;6206048;28;20322;-53
2021/04/06 08:31:32;;;;;;;7.83;2.60;;;;;;;4.80;59.40;100450.78;6204142;28;20229;-53
2021/04/06 08:34:54;;;;;;;4.10;2.23;;;;;;;4.02;63.36;100453.44;6203967;28;20237;-54
2021/04/06 08:38:42;;;;;;;7.20;2.70;;;;;;;3.47;66.14;100435.56;6203180;28;20265;-49
2021/04/06 08:42:04;;;;;;;4.77;1.50;;;;;;;3.32;67.05;100446.50;6215645;28;20237;-52
2021/04/06 08:45:26;;;;;;;3.57;1.40;;;;;;;3.38;67.70;100448.31;6215029;28;20229;-51
2021/04/06 08:48:48;;;;;;;6.53;1.60;;;;;;;3.48;66.98;100455.31;6224136;28;20619;-55
2021/04/06 08:52:14;;;;;;;4.97;1.90;;;;;;;3.33;73.31;100451.69;6210307;28;22259;-49
2021/04/06 08:55:34;;;;;;;2.80;1.70;;;;;;;3.64;68.07;100446.94;6204115;28;20242;-49
2021/04/06 08:59:11;;;;;;;5.30;2.20;;;;;;;3.63;69.01;100449.53;6198846;28;21180;-50
2021/04/06 09:02:32;;;;;;;5.07;1.70;;;;;;;3.55;68.44;100446.84;6203003;28;20509;-51
2021/04/06 09:06:03;;;;;;;4.33;2.00;;;;;;;3.80;68.75;100442.88;6220917;28;20681;-50
2021/04/06 09:09:25;;;;;;;5.83;2.30;;;;;;;3.93;66.72;100454.19;6205202;28;20233;-50
2021/04/06 09:12:47;;;;;;;7.33;2.37;;;;;;;3.41;67.83;100445.75;6204352;28;20229;-51
2021/04/06 09:16:09;;;;;;;9.13;2.30;;;;;;;3.12;68.53;100446.19;6204701;28;20252;-48
2021/04/06 09:19:34;;;;;;;6.80;3.15;;;;;;;3.13;69.33;100465.97;6204783;28;20748;-55
2021/04/06 09:22:55;;;;;;;3.33;2.03;;;;;;;2.24;73.18;100466.97;6214326;28;20592;-58
2021/04/06 09:26:16;;;;;;;3.70;2.43;;;;;;;2.47;70.98;100464.84;6209758;28;20499;-54
2021/04/06 09:29:38;;;;;;;3.80;1.50;;;;;;;2.59;70.96;100464.19;6204758;28;20229;-52
2021/04/06 09:33:00;;;;;;;2.37;1.50;;;;;;;2.22;71.16;100448.09;6215148;28;20236;-50
2021/04/06 09:36:22;;;;;;;2.13;1.37;;;;;;;2.21;71.58;100439.53;6220043;28;20236;-52
2021/04/06 09:39:49;;;;;;;2.87;1.50;;;;;;;2.16;71.21;100439.44;6223505;28;20232;-54
2021/04/06 09:43:10;;;;;;;5.13;1.77;;;;;;;2.44;71.72;100442.50;6208970;28;20229;-51
2021/04/06 09:46:37;;;;;;;4.17;1.87;;;;;;;2.68;70.53;100436.94;6213116;28;20310;-53
2021/04/06 09:49:58;;;;;;;4.63;2.50;;;;;;;3.71;68.07;100441.03;6206991;28;20229;-53
2021/04/06 09:53:20;;;;;;;7.53;2.70;;;;;;;3.37;69.40;100441.41;6211418;28;20614;-52
2021/04/06 09:56:41;;;;;;;7.17;3.70;;;;;;;3.77;70.77;100429.94;6204220;28;20240;-52
2021/04/06 10:00:07;;;;;;;8.60;4.20;;;;;;;3.31;71.08;100455.91;6211297;28;20237;-56
2021/04/06 10:03:28;;;;;;;8.30;2.87;;;;;;;3.74;70.43;100433.38;6212370;28;20255;-50
2021/04/06 10:06:48;;;;;;;5.05;2.05;;;;;;;3.93;67.69;100431.00;6210819;28;20752;-52
2021/04/06 10:10:21;;;;;;;6.57;3.33;;;;;;;3.05;72.49;100454.69;6200231;28;20744;-53
2021/04/06 10:13:42;;;;;;;5.23;3.47;;;;;;;2.51;74.12;100457.19;6194960;28;20512;-50
2021/04/06 10:17:07;;;;;;;11.10;3.83;;;;;;;2.22;75.46;100437.81;6218394;28;20224;-50
2021/04/06 10:20:40;;;;;;;6.67;3.23;;;;;;;2.83;74.11;100428.63;6183505;28;20826;-50
2021/04/06 10:24:04;;;;;;;6.43;3.07;;;;;;;3.74;70.19;100414.44;6202884;28;20256;-54
2021/04/06 10:27:27;;;;;;;6.70;3.33;;;;;;;3.20;72.49;100424.03;6204300;28;20229;-49
2021/04/06 10:30:51;;;;;;;7.77;4.30;;;;;;;3.57;70.69;100418.50;6202414;28;20657;-48
2021/04/06 10:34:12;;;;;;;6.30;2.70;;;;;;;3.06;70.93;100416.09;6213388;28;20585;-52
2021/04/06 10:37:41;;;;;;;4.47;2.80;;;;;;;3.66;69.16;100418.66;6205134;28;20621;-49
2021/04/06 10:41:05;;;;;;;6.47;2.77;;;;;;;3.65;67.69;100402.34;6202197;28;20232;-52
2021/04/06 10:44:27;;;;;;;7.67;2.00;;;;;;;4.05;66.03;100394.19;6225892;28;20316;-54
2021/04/06 10:47:51;;;;;;;6.47;2.93;;;;;;;3.84;67.39;100403.44;6228891;28;20228;-53
2021/04/06 10:51:16;;;;;;;9.83;4.00;;;;;;;4.01;66.78;100382.97;6222529;28;20335;-49
2021/04/06 10:54:37;;;;;;;6.93;3.50;;;;;;;4.34;65.85;100400.53;6210706;28;20240;-55
2021/04/06 10:57:58;;;;;;;3.30;2.27;;;;;;;3.81;66.60;100402.53;6210483;28;20232;-50
2021/04/06 11:01:23;;;;;;;5.10;2.70;;;;;;;3.64;68.72;100416.03;6209066;28;20225;-53
2021/04/06 11:04:43;;;;;;;7.40;3.47;;;;;;;3.38;72.97;100417.44;6230525;28;20232;-55
2021/04/06 11:08:19;;;;;;;5.40;2.17;;;;;;;3.39;70.37;100427.72;6206548;28;20256;-53
2021/04/06 11:11:42;;;;;;;4.03;1.60;;;;;;;2.83;72.06;100408.03;6210733;28;20233;-49
2021/04/06 11:15:03;;;;;;;5.53;2.30;;;;;;;2.79;69.73;100383.09;6203966;28;20233;-53
2021/04/06 11:18:24;;;;;;;2.20;1.40;;;;;;;3.68;67.89;100392.09;6211175;28;20257;-51
2021/04/06 11:21:47;;;;;;;5.47;1.60;;;;;;;3.91;65.69;100392.31;6217088;28;20228;-51
2021/04/06 11:25:09;;;;;;;2.07;1.30;;;;;;;5.38;60.07;100375.47;6219676;28;20366;-54
2021/04/06 11:28:29;;;;;;;6.57;1.37;;;;;;;8.01;52.90;100365.94;6209056;28;20312;-53
2021/04/06 11:31:52;;;;;;;3.37;1.67;;;;;;;10.23;48.02;100363.72;6199875;28;20237;-52
2021/04/06 11:35:14;;;;;;;6.90;1.73;;;;;;;7.36;53.39;100356.72;6230336;28;20237;-54
2021/04/06 11:38:34;;;;;;;3.93;1.63;;;;;;;4.93;60.38;100350.25;6224766;28;20232;-49
2021/04/06 11:41:57;;;;;;;7.17;2.17;;;;;;;4.69;61.92;100355.25;6236127;28;20567;-52
2021/04/06 11:45:21;;;;;;;4.33;2.17;;;;;;;7.10;54.40;100334.38;6218064;28;20852;-51
2021/04/06 11:48:42;;;;;;;6.37;2.87;;;;;;;12.58;41.35;100324.31;6211775;28;20312;-55
2021/04/06 11:52:04;;;;;;;4.13;1.47;;;;;;;14.21;35.64;100325.00;6241103;28;20224;-56
2021/04/06 11:55:25;;;;;;;2.73;1.70;;;;;;;10.40;42.44;100333.09;6216512;28;20232;-56
2021/04/06 11:58:46;;;;;;;2.50;1.73;;;;;;;7.33;51.49;100346.38;6213890;28;20633;-55
2021/04/06 12:02:07;;;;;;;4.80;1.90;;;;;;;5.19;57.84;100346.97;6211130;28;20233;-55
2021/04/06 12:05:29;;;;;;;5.95;2.30;;;;;;;4.88;59.53;100338.19;6198245;28;20743;-54
2021/04/06 12:08:50;;;;;;;6.33;2.20;;;;;;;4.82;59.98;100341.59;6214640;28;20694;-53
2021/04/06 12:12:12;;;;;;;5.73;3.03;;;;;;;4.66;59.96;100332.88;6223025;28;20639;-48
2021/04/06 12:15:33;;;;;;;5.57;2.67;;;;;;;4.24;61.94;100335.97;6201580;28;20241;-50
2021/04/06 12:18:54;;;;;;;5.17;2.53;;;;;;;4.60;61.77;100321.66;6202268;28;20332;-52
2021/04/06 12:22:14;;;;;;;9.63;4.17;;;;;;;6.77;55.50;100323.22;6208424;28;20237;-56
2021/04/06 12:25:36;;;;;;;5.23;1.77;;;;;;;6.98;54.47;100319.72;6203386;28;20233;-50
2021/04/06 12:28:56;;;;;;;7.33;3.50;;;;;;;6.55;53.48;100311.16;6223194;28;20332;-52
2021/04/06 12:32:17;;;;;;;7.07;2.60;;;;;;;8.09;50.99;100312.28;6198432;28;20233;-52
2021/04/06 12:35:38;;;;;;;6.37;2.10;;;;;;;7.58;51.13;100314.34;6226991;28;20232;-55
2021/04/06 12:38:58;;;;;;;6.03;2.87;;;;;;;7.87;50.71;100315.88;6208034;28;20229;-50
2021/04/06 12:42:19;;;;;;;6.90;2.47;;;;;;;8.34;47.68;100304.34;6205836;28;20233;-56
2021/04/06 12:45:39;;;;;;;4.67;1.87;;;;;;;5.65;55.98;100303.25;6206243;28;20229;-51
2021/04/06 12:49:00;;;;;;;12.03;3.00;;;;;;;5.55;57.30;100314.44;6228847;28;20247;-54
2021/04/06 12:52:21;;;;;;;4.70;1.73;;;;;;;5.35;55.35;100310.91;6228526;28;20827;-52
2021/04/06 12:55:41;;;;;;;7.90;2.57;;;;;;;4.95;54.26;100311.56;6228868;28;20260;-49
2021/04/06 12:59:02;;;;;;;8.53;2.07;;;;;;;5.32;52.07;100307.44;6204807;28;20233;-54
2021/04/06 13:02:25;;;;;;;6.10;2.30;;;;;;;6.82;47.25;100303.34;6207624;28;20265;-55
2021/04/06 13:05:46;;;;;;;5.10;2.30;;;;;;;12.29;36.52;100291.97;6204651;28;20229;-56
2021/04/06 13:09:07;;;;;;;4.00;1.80;;;;;;;15.66;31.34;100288.47;6221961;28;21028;-53
2021/04/06 13:12:27;;;;;;;4.57;1.80;;;;;;;15.28;29.20;100273.28;6203956;28;20658;-52
2021/04/06 13:15:48;;;;;;;3.13;1.57;;;;;;;16.16;28.11;100272.50;6219990;28;20233;-54
2021/04/06 13:19:09;;;;;;;4.07;2.27;;;;;;;16.15;25.92;100265.56;6217834;28;20225;-54
2021/04/06 13:22:29;;;;;;;4.13;1.80;;;;;;;16.07;26.02;100255.38;6204897;28;20222;-54
2021/04/06 13:30:50;;;;;;;4.40;1.03;;;;;;;8.31;40.71;100311.28;6219193;28;20233;-49
2021/04/06 13:34:11;;;;;;;2.10;1.03;;;;;;;6.74;44.66;100302.50;6212211;28;20504;-55
2021/04/06 13:37:31;;;;;;;2.07;1.30;;;;;;;6.00;49.56;100328.34;6208789;28;20233;-58
2021/04/06 13:40:52;;;;;;;8.80;2.17;;;;;;;6.10;50.83;100330.09;6209282;28;20232;-54
2021/04/06 13:44:12;;;;;;;5.20;1.43;;;;;;;5.97;52.69;100336.13;6210851;28;20225;-54
2021/04/06 13:47:34;;;;;;;5.63;1.60;;;;;;;5.59;54.12;100334.25;6235260;28;20232;-54
2021/04/06 13:50:54;;;;;;;2.80;1.50;;;;;;;5.87;55.82;100317.13;6217237;28;20237;-54
2021/04/06 13:54:14;;;;;;;4.83;1.50;;;;;;;8.99;47.80;100312.41;6214925;28;20233;-54
2021/04/06 13:57:36;;;;;;;11.43;2.50;;;;;;;11.62;41.31;100305.63;6213426;28;20232;-49
2021/04/06 14:00:56;;;;;;;2.57;1.80;;;;;;;10.80;39.96;100301.19;6219598;28;20229;-48
2021/04/06 14:04:17;;;;;;;2.87;1.07;;;;;;;10.16;41.83;100300.50;6219067;28;20226;-54
2021/04/06 14:07:38;;;;;;;4.53;1.20;;;;;;;9.91;43.71;100300.00;6216296;28;20237;-50
2021/04/06 14:11:00;;;;;;;2.20;1.00;;;;;;;8.79;45.40;100297.03;6206092;28;20316;-54
2021/04/06 14:14:20;;;;;;;5.03;1.37;;;;;;;6.18;50.82;100311.16;6186662;28;20249;-54
2021/04/06 14:17:41;;;;;;;1.60;1.07;;;;;;;6.98;50.36;100301.59;6216781;28;20241;-53
2021/04/06 14:21:02;;;;;;;3.03;1.30;;;;;;;6.98;49.82;100295.53;6213977;28;20606;-53
2021/04/06 14:24:23;;;;;;;2.97;1.47;;;;;;;8.03;47.30;100301.97;6231767;28;20268;-48
2021/04/06 14:27:46;;;;;;;6.57;1.70;;;;;;;8.45;46.24;100283.50;6216695;28;20232;-50
2021/04/06 14:31:07;;;;;;;1.80;1.07;;;;;;;7.49;48.44;100291.06;6214307;28;20229;-52
2021/04/06 14:34:28;;;;;;;1.70;1.60;;;;;;;8.03;46.81;100289.00;6215711;28;20233;-53
2021/04/06 14:37:50;;;;;;;2.50;1.20;;;;;;;9.64;43.94;100281.31;6216303;28;20981;-52
2021/04/06 14:41:10;;;;;;;2.23;1.17;;;;;;;9.53;42.67;100278.00;6226318;28;20253;-52
2021/04/06 14:44:31;;;;;;;3.77;1.60;;;;;;;7.76;47.89;100277.09;6211814;28;20316;-54
2021/04/06 14:47:52;;;;;;;2.50;1.43;;;;;;;6.26;51.67;100291.31;6215717;28;20229;-53
2021/04/06 14:51:15;;;;;;;7.40;1.60;;;;;;;7.29;49.43;100286.81;6211828;28;20245;-54
2021/04/06 14:54:36;;;;;;;3.77;1.50;;;;;;;6.37;52.43;100286.16;6210648;28;20225;-52
2021/04/06 14:57:57;;;;;;;3.83;1.23;;;;;;;6.78;50.77;100283.50;6220338;28;20241;-52
2021/04/06 15:01:19;;;;;;;2.50;1.23;;;;;;;6.42;53.06;100299.97;6209511;28;20714;-47
2021/04/06 15:04:42;;;;;;;3.30;1.40;;;;;;;5.80;58.42;100296.44;6224056;28;20229;-52
2021/04/06 15:08:04;;;;;;;6.47;2.03;;;;;;;5.93;58.98;100295.56;6237508;28;20267;-50
2021/04/06 15:11:28;;;;;;;2.87;1.10;;;;;;;5.66;58.70;100297.25;6211130;28;20550;-52
2021/04/06 15:14:49;;;;;;;2.73;1.00;;;;;;;5.47;59.14;100300.63;6225209;28;20328;-51
2021/04/06 15:18:10;;;;;;;1.70;1.13;;;;;;;5.51;57.18;100289.47;6218605;28;20233;-50
2021/04/06 15:21:47;;;;;;;3.87;1.97;;;;;;;5.51;56.85;100292.03;6219364;28;20304;-53
2021/04/06 15:25:09;;;;;;;2.20;0.83;;;;;;;5.73;57.15;100298.97;6220376;28;20327;-54
2021/04/06 15:28:31;;;;;;;4.43;2.53;;;;;;;5.49;58.45;100304.09;6209356;28;20225;-50
2021/04/06 15:31:51;;;;;;;3.97;2.10;;;;;;;5.42;59.29;100299.75;6216319;28;20613;-52
2021/04/06 15:35:13;;;;;;;2.07;1.27;;;;;;;5.44;59.07;100293.72;6224371;28;20605;-50
2021/04/06 15:38:37;;;;;;;6.87;2.23;;;;;;;5.28;60.03;100285.06;6225882;28;20514;-50
2021/04/06 15:42:00;;;;;;;2.27;1.40;;;;;;;5.22;60.67;100274.72;6212581;28;20228;-54
2021/04/06 15:45:24;;;;;;;1.90;1.10;;;;;;;5.06;60.63;100278.94;6202601;28;20233;-49
2021/04/06 15:48:45;;;;;;;7.53;1.70;;;;;;;5.46;58.60;100285.97;6208848;28;20252;-52
2021/04/06 15:52:21;;;;;;;14.40;9.40;;;;;;;6.11;57.58;100295.63;6213608;28;20229;-50
2021/04/06 15:55:43;;;;;;;4.17;1.60;;;;;;;6.37;54.56;100293.91;6213894;28;20237;-52
2021/04/06 15:59:03;;;;;;;4.20;1.20;;;;;;;5.96;56.50;100290.44;6224849;28;20220;-51